Time;durP1;ratioP1;P1;durP2;ratioP2;P2;SDS_P1;SDS_P2;PMS_P1;PMS_P2;Temp;Humidity;BMP_temperature;BMP_pressure;BME280_temperature;BME280_humidity;BME280_pressure;Samples;Min_cycle;Max_cycle;Signal;HPM_P1;HPM_P2
2024/03/12 00:01:45;;;;;;;1.43;1.10;;;1.40;76.40;;;;;;4982906;28;20031;-78
2024/03/12 00:04:23;;;;;;;4.35;2.15;;;1.40;76.40;;;;;;4973331;28;20054;-77
2024/03/12 00:06:49;;;;;;;2.10;1.00;;;1.40;76.50;;;;;;4971560;28;20031;-78
2024/03/12 00:09:17;;;;;;;1.83;1.40;;;1.40;76.60;;;;;;4973531;28;20026;-77
2024/03/12 00:11:42;;;;;;;5.25;1.50;;;1.40;76.60;;;;;;4975863;28;20495;-78
2024/03/12 00:14:08;;;;;;;2.03;1.13;;;1.40;76.60;;;;;;4975752;28;20045;-79
2024/03/12 00:16:34;;;;;;;4.30;1.67;;;1.40;76.50;;;;;;4975774;28;20047;-77
2024/03/12 00:19:00;;;;;;;1.48;1.33;;;1.40;76.70;;;;;;4975975;28;20376;-76
2024/03/12 00:21:26;;;;;;;3.67;1.70;;;1.30;76.70;;;;;;4973872;28;20500;-77
2024/03/12 00:23:52;;;;;;;3.22;1.58;;;1.30;76.80;;;;;;4975801;28;20029;-78
2024/03/12 00:26:18;;;;;;;3.97;1.65;;;1.40;76.80;;;;;;4975674;28;20027;-76
2024/03/12 00:28:47;;;;;;;2.92;1.85;;;1.40;76.80;;;;;;4975724;28;20038;-76
2024/03/12 00:31:13;;;;;;;3.03;1.55;;;1.40;76.70;;;;;;4975583;28;20038;-77
2024/03/12 00:33:42;;;;;;;2.33;1.40;;;1.40;76.70;;;;;;4974370;28;20034;-79
2024/03/12 00:36:12;;;;;;;1.30;1.20;;;1.30;76.70;;;;;;4975710;28;20496;-76
2024/03/12 00:38:38;;;;;;;4.18;1.52;;;1.40;76.80;;;;;;4973198;28;20099;-77
2024/03/12 00:41:04;;;;;;;1.75;1.05;;;1.40;76.70;;;;;;4972268;28;20027;-78
2024/03/12 00:43:32;;;;;;;1.40;1.10;;;1.40;76.70;;;;;;4975368;28;20073;-78
2024/03/12 00:45:59;;;;;;;2.72;1.17;;;1.40;76.70;;;;;;4975547;28;20053;-77
2024/03/12 00:48:27;;;;;;;3.13;1.33;;;1.40;76.70;;;;;;4975415;28;20027;-77
2024/03/12 00:50:53;;;;;;;2.45;1.50;;;1.40;76.90;;;;;;4975447;28;20337;-77
2024/03/12 00:53:19;;;;;;;1.73;1.00;;;1.30;76.90;;;;;;4974037;28;20515;-77
2024/03/12 00:55:47;;;;;;;4.75;1.90;;;1.40;76.80;;;;;;4975727;28;20026;-78
2024/03/12 00:58:15;;;;;;;;;;;1.30;76.80;;;;;;4973405;28;20505;-76
2024/03/12 01:00:41;;;;;;;4.57;1.45;;;1.30;76.80;;;;;;4975365;28;20342;-76
2024/03/12 01:03:11;;;;;;;1.38;1.13;;;1.30;76.70;;;;;;4975451;28;20046;-77
2024/03/12 01:05:37;;;;;;;3.70;1.45;;;1.30;77.50;;;;;;4975347;28;20026;-77
2024/03/12 01:08:05;;;;;;;2.85;1.80;;;1.30;76.90;;;;;;4975130;28;20054;-78
2024/03/12 01:10:33;;;;;;;1.38;1.08;;;1.30;77.00;;;;;;4973567;28;20123;-76
2024/03/12 01:13:00;;;;;;;2.63;1.20;;;1.30;77.00;;;;;;4975147;28;20037;-77
2024/03/12 01:15:27;;;;;;;2.30;1.48;;;1.30;76.90;;;;;;4973838;28;20031;-76
2024/03/12 01:17:53;;;;;;;4.60;1.30;;;1.30;77.00;;;;;;4974881;28;20037;-79
2024/03/12 01:20:24;;;;;;;1.83;1.40;;;1.40;77.20;;;;;;4975211;28;20077;-79
2024/03/12 01:22:51;;;;;;;1.67;1.20;;;1.40;77.10;;;;;;4974818;28;20110;-78
2024/03/12 01:25:18;;;;;;;4.82;1.60;;;1.30;77.00;;;;;;4973513;28;20046;-77
2024/03/12 01:27:44;;;;;;;2.57;1.40;;;1.30;76.90;;;;;;4974556;28;20030;-79
2024/03/12 01:30:19;;;;;;;1.88;0.98;;;1.30;76.90;;;;;;4973974;28;20514;-78
2024/03/12 01:32:46;;;;;;;1.70;1.30;;;1.30;76.90;;;;;;4974343;28;20051;-79
2024/03/12 01:35:13;;;;;;;1.20;0.93;;;1.30;77.00;;;;;;4974679;28;20371;-77
2024/03/12 01:37:43;;;;;;;1.73;1.23;;;1.30;77.10;;;;;;4974469;28;20031;-78
2024/03/12 01:40:21;;;;;;;2.80;1.38;;;1.20;77.10;;;;;;4974406;28;20021;-78
2024/03/12 01:42:53;;;;;;;2.33;1.60;;;1.20;77.40;;;;;;4974339;28;20031;-79
2024/03/12 01:45:22;;;;;;;2.55;1.30;;;1.20;77.20;;;;;;4974408;28;20027;-79
2024/03/12 01:47:52;;;;;;;6.63;2.08;;;1.20;77.30;;;;;;4973550;28;20031;-80
2024/03/12 01:50:20;;;;;;;2.38;1.30;;;1.30;77.30;;;;;;4972804;28;20026;-78
2024/03/12 01:52:47;;;;;;;1.73;1.33;;;1.30;77.20;;;;;;4973123;28;20181;-78
2024/03/12 01:55:14;;;;;;;1.95;1.38;;;1.20;77.10;;;;;;4974150;28;20494;-77
2024/03/12 01:57:45;;;;;;;2.05;1.30;;;1.20;77.50;;;;;;4965748;28;20034;-77
2024/03/12 02:00:13;;;;;;;1.95;1.38;;;1.20;77.60;;;;;;4974395;28;20026;-76
2024/03/12 02:02:52;;;;;;;3.72;1.52;;;1.10;77.60;;;;;;4974357;28;20425;-79
2024/03/12 02:05:18;;;;;;;1.65;1.05;;;1.20;77.70;;;;;;4971792;28;20086;-76
2024/03/12 02:07:48;;;;;;;2.63;1.55;;;1.10;77.50;;;;;;4972038;28;20029;-78
2024/03/12 02:10:15;;;;;;;1.05;1.02;;;1.10;77.60;;;;;;4972491;28;20023;-76
2024/03/12 02:12:43;;;;;;;2.25;1.30;;;1.10;77.70;;;;;;4973691;28;20469;-77
2024/03/12 02:15:10;;;;;;;2.60;1.33;;;1.10;77.80;;;;;;4974201;28;20031;-76
2024/03/12 02:17:35;;;;;;;1.83;1.00;;;1.10;77.70;;;;;;4973680;28;20046;-78
2024/03/12 02:20:07;;;;;;;3.53;1.30;;;1.10;77.90;;;;;;4972856;28;20027;-77
2024/03/12 02:22:32;;;;;;;1.83;1.38;;;1.10;78.00;;;;;;4972395;28;20034;-77
2024/03/12 02:24:58;;;;;;;3.13;1.42;;;1.10;78.00;;;;;;4973691;28;20505;-78
2024/03/12 02:27:25;;;;;;;4.75;1.40;;;1.00;78.00;;;;;;4973911;28;20023;-77
2024/03/12 02:29:51;;;;;;;1.77;1.43;;;1.10;78.20;;;;;;4974416;28;20026;-77
2024/03/12 02:32:17;;;;;;;10.52;1.15;;;1.10;78.20;;;;;;4971791;28;20269;-79
2024/03/12 02:34:43;;;;;;;1.48;1.25;;;1.10;78.20;;;;;;4962366;28;20031;-77
2024/03/12 02:37:09;;;;;;;3.35;1.50;;;1.10;78.30;;;;;;4972802;28;20409;-78
2024/03/12 02:39:35;;;;;;;2.15;1.33;;;1.10;78.30;;;;;;4973559;28;20114;-78
2024/03/12 02:42:01;;;;;;;4.55;1.48;;;1.10;78.30;;;;;;4973296;28;20023;-77
2024/03/12 02:44:27;;;;;;;2.22;1.25;;;1.10;78.40;;;;;;4968700;28;20026;-77
2024/03/12 02:46:54;;;;;;;2.40;1.45;;;1.10;78.50;;;;;;4972090;28;20035;-77
2024/03/12 02:49:23;;;;;;;2.03;1.67;;;1.10;78.50;;;;;;4973378;28;20058;-77
2024/03/12 02:51:49;;;;;;;3.00;1.50;;;1.10;78.50;;;;;;4973495;28;20023;-77
2024/03/12 02:54:20;;;;;;;2.30;1.38;;;1.10;78.60;;;;;;4967925;28;20460;-79
2024/03/12 02:56:47;;;;;;;3.90;1.48;;;1.10;78.60;;;;;;4970998;28;20106;-78
2024/03/12 02:59:14;;;;;;;1.80;1.23;;;1.10;78.60;;;;;;4970953;28;20400;-76
2024/03/12 03:01:40;;;;;;;2.38;1.48;;;1.00;78.60;;;;;;4968953;28;20373;-78
2024/03/12 03:04:08;;;;;;;2.33;1.55;;;1.10;78.60;;;;;;4973266;28;20030;-79
2024/03/12 03:06:35;;;;;;;3.88;1.50;;;1.00;78.60;;;;;;4972963;28;20037;-78
2024/03/12 03:09:01;;;;;;;4.00;1.88;;;1.10;78.60;;;;;;4973510;28;20030;-80
2024/03/12 03:11:27;;;;;;;1.90;1.73;;;1.10;78.60;;;;;;4967836;28;20023;-77
2024/03/12 03:13:53;;;;;;;1.63;1.40;;;1.10;78.70;;;;;;4973101;28;20054;-79
2024/03/12 03:16:22;;;;;;;2.28;1.30;;;1.10;78.90;;;;;;4967641;28;20054;-78
2024/03/12 03:18:48;;;;;;;5.75;1.50;;;1.00;78.90;;;;;;4972972;28;20066;-78
2024/03/12 03:21:14;;;;;;;3.00;1.48;;;1.00;78.90;;;;;;4976914;28;20054;-79
2024/03/12 03:23:42;;;;;;;1.98;1.77;;;1.10;78.80;;;;;;4977320;28;20035;-77
2024/03/12 03:26:08;;;;;;;6.10;1.80;;;1.00;78.80;;;;;;4976277;28;20023;-77
2024/03/12 03:28:34;;;;;;;4.45;1.58;;;1.00;78.90;;;;;;4977189;28;20530;-79
2024/03/12 03:31:00;;;;;;;4.75;1.92;;;1.00;78.90;;;;;;4976662;28;20063;-78
2024/03/12 03:33:27;;;;;;;4.43;1.40;;;1.00;79.00;;;;;;4976615;28;20062;-76
2024/03/12 03:35:53;;;;;;;2.70;1.95;;;1.00;79.10;;;;;;4976789;28;20085;-78
2024/03/12 03:38:19;;;;;;;3.47;3.17;;;1.10;79.10;;;;;;4975357;28;20034;-77
2024/03/12 03:40:46;;;;;;;2.20;1.45;;;1.10;79.20;;;;;;4976628;28;20023;-77
2024/03/12 03:43:11;;;;;;;3.65;1.42;;;1.10;79.20;;;;;;4981592;28;20025;-77
2024/03/12 03:45:37;;;;;;;3.25;1.80;;;1.10;79.10;;;;;;4977187;28;20701;-76
2024/03/12 03:48:04;;;;;;;2.40;1.75;;;1.10;79.90;;;;;;4976452;28;20026;-76
2024/03/12 03:50:30;;;;;;;3.15;1.52;;;1.10;79.30;;;;;;4976605;28;20057;-78
2024/03/12 03:52:56;;;;;;;1.90;1.27;;;1.10;79.30;;;;;;4972434;28;20031;-79
2024/03/12 03:55:23;;;;;;;5.32;2.97;;;1.10;79.80;;;;;;4962954;28;20026;-77
2024/03/12 03:57:52;;;;;;;3.42;1.88;;;1.10;79.40;;;;;;4976430;28;20085;-79
2024/03/12 04:00:23;;;;;;;3.70;1.60;;;1.00;79.30;;;;;;4973893;28;20480;-78
2024/03/12 04:02:50;;;;;;;2.33;1.75;;;1.00;79.50;;;;;;4976736;28;20045;-78
2024/03/12 04:05:16;;;;;;;3.03;1.67;;;1.10;79.60;;;;;;4978485;28;20011;-79
2024/03/12 04:07:43;;;;;;;2.10;1.60;;;1.10;79.40;;;;;;4976937;28;20033;-78
2024/03/12 04:10:10;;;;;;;4.25;1.60;;;1.00;79.40;;;;;;4974728;28;20023;-78
2024/03/12 04:12:45;;;;;;;5.20;1.58;;;1.10;79.40;;;;;;4975931;28;20065;-78
2024/03/12 04:15:12;;;;;;;4.80;2.45;;;1.10;79.40;;;;;;4974751;28;20027;-80
2024/03/12 04:17:42;;;;;;;5.95;2.22;;;1.00;79.40;;;;;;4974987;28;20026;-78
2024/03/12 04:20:11;;;;;;;2.53;1.60;;;1.00;79.40;;;;;;4974754;28;20030;-78
2024/03/12 04:22:43;;;;;;;2.42;1.55;;;1.00;79.40;;;;;;4975742;28;20114;-80
2024/03/12 04:25:09;;;;;;;6.15;1.60;;;1.10;79.60;;;;;;4976185;28;20054;-78
2024/03/12 04:27:38;;;;;;;5.20;1.50;;;1.10;79.60;;;;;;4974468;28;20023;-78
2024/03/12 04:30:12;;;;;;;4.03;1.90;;;1.10;79.60;;;;;;4975484;28;20376;-79
2024/03/12 04:32:39;;;;;;;4.00;1.70;;;1.10;79.60;;;;;;4975660;28;20386;-79
2024/03/12 04:35:05;;;;;;;2.75;1.90;;;1.10;79.30;;;;;;4973436;28;20023;-77
2024/03/12 04:37:32;;;;;;;7.03;2.33;;;1.10;79.40;;;;;;4975528;28;20034;-78
2024/03/12 04:40:06;;;;;;;1.85;1.40;;;1.20;79.50;;;;;;4974149;28;20019;-78
2024/03/12 04:42:35;;;;;;;3.70;1.95;;;1.20;79.50;;;;;;4975643;28;20030;-77
2024/03/12 04:45:01;;;;;;;2.78;1.80;;;1.20;79.40;;;;;;4975070;28;20026;-77
2024/03/12 04:47:27;;;;;;;4.00;1.90;;;1.30;79.40;;;;;;4974044;28;20023;-79
2024/03/12 04:49:53;;;;;;;4.30;1.40;;;1.20;79.40;;;;;;4973968;28;20029;-77
2024/03/12 04:52:19;;;;;;;4.33;2.47;;;1.30;79.40;;;;;;4967042;28;20034;-80
2024/03/12 04:54:46;;;;;;;3.95;1.45;;;1.20;79.20;;;;;;4975534;28;20686;-78
2024/03/12 04:57:11;;;;;;;6.00;2.60;;;1.20;79.30;;;;;;4975539;28;20015;-78
2024/03/12 04:59:37;;;;;;;3.00;1.60;;;1.20;79.40;;;;;;4975459;28;20074;-80
2024/03/12 05:02:03;;;;;;;3.75;1.88;;;1.30;79.50;;;;;;4975316;28;20023;-79
2024/03/12 05:04:29;;;;;;;5.88;2.17;;;1.40;79.40;;;;;;4975509;28;20027;-78
2024/03/12 05:06:55;;;;;;;7.40;2.30;;;1.40;78.90;;;;;;4974029;28;20026;-79
2024/03/12 05:09:23;;;;;;;3.30;1.95;;;1.50;79.10;;;;;;4974971;28;20018;-78
2024/03/12 05:11:49;;;;;;;3.63;2.30;;;1.50;79.00;;;;;;4974649;28;20081;-79
2024/03/12 05:14:15;;;;;;;4.55;2.70;;;1.40;79.00;;;;;;4974707;28;20030;-78
2024/03/12 05:16:41;;;;;;;1.98;1.30;;;1.50;79.20;;;;;;4974856;28;20050;-78
2024/03/12 05:19:10;;;;;;;4.32;2.20;;;1.50;78.90;;;;;;4974702;28;20027;-79
2024/03/12 05:21:36;;;;;;;8.93;2.25;;;1.60;78.80;;;;;;4969901;28;20508;-78
2024/03/12 05:24:03;;;;;;;3.05;2.00;;;1.60;78.70;;;;;;4972679;28;20105;-76
2024/03/12 05:26:29;;;;;;;5.35;1.90;;;1.60;79.00;;;;;;4974569;28;20030;-77
2024/03/12 05:28:58;;;;;;;4.25;1.90;;;1.60;78.80;;;;;;4974624;28;20022;-79
2024/03/12 05:31:37;;;;;;;5.38;2.80;;;1.60;78.70;;;;;;4974492;28;20023;-79
2024/03/12 05:34:03;;;;;;;5.25;2.25;;;1.60;78.70;;;;;;4972735;28;20097;-79
2024/03/12 05:36:40;;;;;;;5.38;2.20;;;1.70;78.80;;;;;;4971312;28;20026;-78
2024/03/12 05:39:20;;;;;;;9.32;2.15;;;1.70;78.90;;;;;;4970560;28;20515;-79
2024/03/12 05:48:06;;;;;;;3.28;2.17;;;1.80;78.60;;;;;;4969881;28;20027;-78
2024/03/12 05:50:03;;;;;;;8.00;2.75;;;1.90;78.30;;;;;;4970781;28;20050;-79
2024/03/12 05:52:29;;;;;;;8.32;2.63;;;2.00;78.50;;;;;;4969919;28;20023;-79
2024/03/12 05:54:55;;;;;;;4.47;2.05;;;2.10;78.30;;;;;;4966172;28;20116;-79
2024/03/12 05:57:24;;;;;;;5.88;2.42;;;2.20;77.70;;;;;;4972951;28;20022;-78
2024/03/12 05:59:49;;;;;;;6.00;3.17;;;2.20;77.50;;;;;;4971468;28;20082;-79
2024/03/12 06:02:15;;;;;;;3.67;1.88;;;2.20;77.20;;;;;;4972374;28;20437;-79
2024/03/12 06:04:41;;;;;;;3.30;2.35;;;2.20;77.20;;;;;;4964239;28;20035;-82
2024/03/12 06:07:07;;;;;;;4.57;2.58;;;2.20;77.40;;;;;;4960168;28;20030;-79
2024/03/12 06:09:33;;;;;;;3.95;2.42;;;2.20;77.10;;;;;;4965028;28;20214;-80
2024/03/12 06:11:58;;;;;;;7.63;2.50;;;2.30;77.10;;;;;;4969059;28;20106;-79
2024/03/12 06:14:27;;;;;;;8.02;2.50;;;2.40;77.10;;;;;;4973091;28;20096;-83
2024/03/12 06:16:52;;;;;;;7.55;2.25;;;2.50;76.90;;;;;;4971746;28;20113;-81
2024/03/12 06:19:19;;;;;;;3.67;2.65;;;2.50;76.40;;;;;;4959816;28;20106;-84
2024/03/12 06:21:45;;;;;;;2.97;2.17;;;2.60;76.70;;;;;;4970676;28;20023;-81
2024/03/12 06:24:11;;;;;;;3.05;2.35;;;2.70;76.50;;;;;;4965647;28;20178;-82
2024/03/12 06:26:37;;;;;;;4.70;2.95;;;2.80;76.00;;;;;;4971175;28;20122;-81
2024/03/12 06:29:06;;;;;;;3.72;2.38;;;2.80;76.20;;;;;;4972656;28;20031;-81
2024/03/12 06:31:34;;;;;;;7.85;3.20;;;2.80;76.20;;;;;;4976016;28;20031;-80
2024/03/12 06:34:00;;;;;;;7.22;3.00;;;2.90;75.80;;;;;;4975155;28;20035;-80
2024/03/12 06:36:27;;;;;;;4.00;2.95;;;2.90;75.70;;;;;;4973186;28;20023;-81
2024/03/12 06:38:56;;;;;;;5.03;3.08;;;2.90;75.70;;;;;;4973442;28;20145;-81
2024/03/12 06:41:24;;;;;;;2.90;1.73;;;3.00;75.30;;;;;;4971960;28;20369;-80
2024/03/12 06:43:50;;;;;;;11.65;3.50;;;2.90;75.60;;;;;;4973399;28;20078;-80
2024/03/12 06:46:19;;;;;;;4.47;2.50;;;2.80;75.70;;;;;;4973437;28;20023;-80
2024/03/12 06:48:46;;;;;;;13.10;3.00;;;3.00;75.90;;;;;;4970016;28;20028;-80
2024/03/12 06:51:12;;;;;;;4.60;2.40;;;3.00;75.70;;;;;;4967885;28;20098;-81
2024/03/12 06:53:38;;;;;;;3.70;2.22;;;3.00;75.70;;;;;;4973183;28;20050;-82
2024/03/12 06:56:05;;;;;;;3.65;2.40;;;3.10;75.50;;;;;;4972761;28;20023;-80
2024/03/12 06:58:31;;;;;;;;;;;3.00;75.30;;;;;;4972407;28;20035;-81
2024/03/12 07:00:58;;;;;;;5.43;2.47;;;3.00;75.60;;;;;;4973516;28;19906;-82
2024/03/12 07:03:24;;;;;;;5.57;2.17;;;3.00;75.60;;;;;;4972963;28;20050;-82
2024/03/12 07:05:54;;;;;;;3.97;2.75;;;3.00;75.30;;;;;;4973234;28;20033;-82
2024/03/12 07:08:25;;;;;;;9.95;3.45;;;3.00;75.30;;;;;;4973059;28;20026;-81
2024/03/12 07:10:51;;;;;;;4.35;2.60;;;3.10;75.20;;;;;;4973283;28;20050;-83
2024/03/12 07:13:20;;;;;;;7.45;3.42;;;3.20;75.00;;;;;;4972497;28;20038;-80
2024/03/12 07:15:48;;;;;;;6.45;3.30;;;3.30;75.10;;;;;;4958113;28;20051;-80
2024/03/12 07:18:14;;;;;;;4.65;2.65;;;3.40;75.10;;;;;;4974136;28;20022;-84
2024/03/12 07:20:40;;;;;;;6.85;2.83;;;3.50;74.50;;;;;;4972936;28;20084;-81
2024/03/12 07:23:06;;;;;;;6.00;3.22;;;3.50;74.60;;;;;;4973541;28;20101;-83
2024/03/12 07:25:32;;;;;;;6.38;3.08;;;3.60;74.10;;;;;;4972078;28;20027;-84
2024/03/12 07:28:01;;;;;;;5.57;2.90;;;3.70;74.10;;;;;;4972869;28;20027;-82
2024/03/12 07:30:27;;;;;;;6.88;2.45;;;3.90;73.70;;;;;;4973021;28;20100;-81
2024/03/12 07:32:54;;;;;;;4.85;2.92;;;4.00;73.00;;;;;;4955359;28;20089;-82
2024/03/12 07:35:20;;;;;;;6.30;2.80;;;4.10;72.50;;;;;;4971661;28;20045;-82
2024/03/12 07:37:46;;;;;;;5.22;2.55;;;4.30;72.30;;;;;;4972542;28;20349;-80
2024/03/12 07:40:12;;;;;;;4.45;2.40;;;4.40;71.80;;;;;;4971552;28;20105;-81
2024/03/12 07:42:42;;;;;;;11.23;3.67;;;4.60;71.10;;;;;;4972944;28;20094;-83
2024/03/12 07:45:14;;;;;;;6.60;2.90;;;4.90;70.30;;;;;;4971193;28;20327;-81
2024/03/12 07:47:40;;;;;;;5.68;2.60;;;4.90;70.20;;;;;;4968207;28;20126;-82
2024/03/12 07:50:11;;;;;;;6.65;2.90;;;5.10;69.80;;;;;;4970108;28;20047;-84
2024/03/12 07:52:37;;;;;;;6.63;2.72;;;5.60;69.00;;;;;;4971845;28;20026;-84
2024/03/12 07:55:03;;;;;;;3.00;2.35;;;6.50;67.10;;;;;;4971435;28;20544;-83
2024/03/12 07:57:35;;;;;;;4.22;2.38;;;7.00;64.10;;;;;;4972614;28;20051;-81
2024/03/12 08:00:05;;;;;;;5.00;2.78;;;6.90;64.00;;;;;;4972571;28;20026;-84
2024/03/12 08:02:31;;;;;;;3.95;2.67;;;7.30;63.10;;;;;;4972806;28;20023;-85
2024/03/12 08:04:57;;;;;;;5.68;2.95;;;8.10;60.90;;;;;;4974413;28;20118;-82
2024/03/12 08:07:24;;;;;;;5.40;2.65;;;7.90;59.40;;;;;;4975185;28;20465;-81
2024/03/12 08:09:50;;;;;;;5.65;2.60;;;8.40;59.90;;;;;;4974915;28;20027;-82
2024/03/12 08:12:19;;;;;;;7.00;3.08;;;9.20;58.80;;;;;;4975946;28;20050;-81
2024/03/12 08:14:45;;;;;;;6.45;3.28;;;10.10;56.50;;;;;;4974817;28;20030;-82
2024/03/12 08:17:15;;;;;;;5.40;3.25;;;9.60;54.30;;;;;;4975999;28;20472;-84
2024/03/12 08:19:47;;;;;;;5.22;2.78;;;8.70;55.60;;;;;;4976577;28;20113;-84
2024/03/12 08:22:13;;;;;;;8.45;3.33;;;8.00;56.50;;;;;;4976766;28;20019;-82
2024/03/12 08:24:39;;;;;;;6.88;2.92;;;8.90;58.30;;;;;;4974885;28;20034;-82
2024/03/12 08:27:06;;;;;;;6.35;3.20;;;9.70;54.70;;;;;;4976100;28;20034;-83
2024/03/12 08:29:33;;;;;;;13.45;3.42;;;9.30;54.40;;;;;;4976902;28;20023;-83
2024/03/12 08:31:59;;;;;;;8.15;4.00;;;8.80;54.90;;;;;;4976353;28;20458;-83
2024/03/12 08:34:28;;;;;;;10.23;3.05;;;8.30;55.30;;;;;;4976233;28;20078;-82
2024/03/12 08:36:55;;;;;;;5.68;3.03;;;7.50;56.20;;;;;;4975737;28;20079;-81
2024/03/12 08:39:22;;;;;;;5.10;2.67;;;6.70;57.50;;;;;;4975721;28;20033;-80
2024/03/12 08:41:47;;;;;;;5.53;2.57;;;6.00;58.60;;;;;;4975668;28;20503;-82
2024/03/12 08:44:14;;;;;;;3.50;2.50;;;5.70;59.30;;;;;;4975826;28;20261;-82
2024/03/12 08:46:41;;;;;;;3.42;2.33;;;5.90;59.60;;;;;;4974117;28;20074;-82
2024/03/12 08:49:10;;;;;;;6.07;2.95;;;6.00;59.80;;;;;;4976448;28;20022;-83
2024/03/12 08:51:41;;;;;;;6.10;2.50;;;6.30;59.10;;;;;;4980115;28;20031;-81
2024/03/12 08:54:08;;;;;;;7.13;2.45;;;6.30;58.90;;;;;;4977462;28;20035;-83
2024/03/12 08:56:37;;;;;;;10.70;2.80;;;6.70;58.30;;;;;;4974226;28;20436;-82
2024/03/12 08:59:08;;;;;;;8.85;3.15;;;7.10;57.60;;;;;;4974581;28;20042;-82
2024/03/12 09:01:34;;;;;;;5.13;2.45;;;7.30;56.80;;;;;;4975437;28;20023;-83
2024/03/12 09:04:02;;;;;;;9.30;2.85;;;7.10;56.70;;;;;;4974224;28;20377;-82
2024/03/12 09:06:27;;;;;;;4.38;2.70;;;6.70;56.90;;;;;;4975285;28;20027;-82
2024/03/12 09:08:54;;;;;;;9.75;2.97;;;6.50;57.30;;;;;;4974528;28;20102;-81
2024/03/12 09:11:20;;;;;;;8.55;2.33;;;6.60;58.20;;;;;;4975499;28;20527;-84
2024/03/12 09:13:46;;;;;;;5.80;2.28;;;7.40;57.30;;;;;;4976019;28;20126;-83
2024/03/12 09:16:13;;;;;;;5.20;2.33;;;9.00;55.50;;;;;;4975274;28;20062;-82
2024/03/12 09:18:43;;;;;;;18.77;3.05;;;9.80;51.90;;;;;;4974857;28;20034;-85
2024/03/12 09:21:15;;;;;;;3.38;1.85;;;9.00;50.70;;;;;;4977026;28;20050;-84
2024/03/12 09:23:42;;;;;;;3.28;2.33;;;9.50;53.20;;;;;;4977203;28;20042;-82
2024/03/12 09:26:08;;;;;;;2.00;1.60;;;11.10;51.00;;;;;;4976966;28;20050;-83
2024/03/12 09:28:36;;;;;;;6.43;2.45;;;12.50;49.20;;;;;;4975255;28;20092;-84
2024/03/12 09:31:08;;;;;;;2.65;1.98;;;14.30;46.10;;;;;;4975052;28;20018;-82
2024/03/12 09:33:34;;;;;;;2.90;2.25;;;14.90;43.80;;;;;;4975003;28;20037;-83
2024/03/12 09:36:01;;;;;;;2.70;1.98;;;14.60;43.20;;;;;;4974658;28;20388;-82
2024/03/12 09:38:26;;;;;;;3.35;2.22;;;14.90;42.80;;;;;;4973504;28;20026;-83
2024/03/12 09:40:59;;;;;;;8.05;2.08;;;15.20;41.90;;;;;;4973868;28;20108;-86
2024/03/12 09:43:29;;;;;;;3.75;1.95;;;15.70;41.60;;;;;;4974586;28;20023;-83
2024/03/12 09:45:56;;;;;;;3.15;2.83;;;15.90;40.60;;;;;;4973267;28;20023;-83
2024/03/12 09:48:22;;;;;;;6.93;2.50;;;15.90;40.40;;;;;;4974586;28;20015;-83
2024/03/12 09:50:49;;;;;;;3.20;2.17;;;16.50;40.40;;;;;;4974507;28;20790;-83
2024/03/12 09:53:15;;;;;;;2.80;2.03;;;17.20;38.50;;;;;;4974356;28;20453;-84
2024/03/12 09:55:43;;;;;;;5.40;2.78;;;17.60;38.30;;;;;;4974806;28;20374;-84
2024/03/12 09:58:08;;;;;;;;;;;18.10;37.70;;;;;;4974925;28;20110;-84
2024/03/12 10:00:36;;;;;;;3.17;1.77;;;18.80;38.70;;;;;;4973318;28;20001;-84
2024/03/12 10:03:03;;;;;;;5.78;1.92;;;;;;;;;;4974962;28;20035;-84
2024/03/12 10:05:29;;;;;;;3.07;1.30;;;19.80;50.10;;;;;;4974778;28;20106;-86
2024/03/12 10:08:06;;;;;;;3.00;1.92;;;19.20;48.40;;;;;;4974964;28;20046;-85
2024/03/12 10:10:39;;;;;;;2.75;1.92;;;17.60;48.40;;;;;;4975699;28;20030;-87
2024/03/12 10:13:08;;;;;;;2.40;1.80;;;17.50;47.10;;;;;;4975132;28;20037;-83
2024/03/12 10:15:36;;;;;;;2.63;1.88;;;17.60;45.00;;;;;;4959384;28;20046;-83
2024/03/12 10:18:06;;;;;;;2.70;1.90;;;18.10;45.50;;;;;;4973790;28;20457;-86
2024/03/12 10:20:45;;;;;;;4.20;2.28;;;18.40;43.80;;;;;;4973136;28;20023;-84
2024/03/12 10:23:13;;;;;;;2.42;1.80;;;17.90;44.40;;;;;;4974332;28;20049;-84
2024/03/12 10:25:39;;;;;;;2.28;1.90;;;17.90;44.60;;;;;;4974468;28;20106;-86
2024/03/12 10:28:07;;;;;;;5.55;2.35;;;17.60;45.20;;;;;;4972894;28;20113;-84
2024/03/12 10:30:37;;;;;;;5.22;2.55;;;16.20;41.60;;;;;;4977180;28;20408;-84
2024/03/12 10:33:17;;;;;;;5.32;1.90;;;13.80;38.40;;;;;;4974148;28;20039;-85
2024/03/12 10:35:44;;;;;;;4.43;1.85;;;11.60;40.90;;;;;;4973855;28;20101;-85
2024/03/12 10:38:24;;;;;;;4.43;2.03;;;10.20;43.20;;;;;;4973631;28;20499;-84
2024/03/12 10:40:50;;;;;;;3.70;2.25;;;9.10;44.80;;;;;;4972898;28;20041;-83
2024/03/12 10:43:20;;;;;;;4.32;2.30;;;8.50;46.20;;;;;;4973216;28;20098;-84
2024/03/12 10:45:49;;;;;;;6.63;2.35;;;8.10;47.60;;;;;;4974120;28;20022;-83
2024/03/12 10:48:16;;;;;;;7.30;1.90;;;7.50;48.80;;;;;;4974104;28;20019;-82
2024/03/12 10:50:43;;;;;;;3.20;1.70;;;7.00;49.70;;;;;;4973840;28;20026;-84
2024/03/12 10:53:11;;;;;;;6.35;1.92;;;6.60;50.90;;;;;;4973248;28;20134;-84
2024/03/12 10:55:38;;;;;;;4.13;1.83;;;6.40;50.70;;;;;;4974126;28;20027;-83
2024/03/12 10:58:08;;;;;;;4.03;2.00;;;6.30;51.00;;;;;;4973239;28;20034;-82
2024/03/12 11:00:39;;;;;;;2.40;1.45;;;6.20;51.30;;;;;;4973741;28;20026;-84
2024/03/12 11:03:08;;;;;;;2.72;1.63;;;6.00;51.40;;;;;;4973920;28;20029;-83
2024/03/12 11:05:35;;;;;;;3.85;2.15;;;5.80;52.00;;;;;;4973913;28;20101;-83
2024/03/12 11:08:01;;;;;;;3.83;2.08;;;5.70;52.40;;;;;;4974574;28;20480;-84
2024/03/12 11:10:32;;;;;;;4.00;1.83;;;5.60;52.90;;;;;;4971833;28;20037;-85
2024/03/12 11:13:08;;;;;;;2.92;1.70;;;5.40;53.20;;;;;;4973585;28;20034;-83
2024/03/12 11:15:40;;;;;;;5.88;2.22;;;5.40;53.50;;;;;;4973293;28;20050;-82
2024/03/12 11:18:06;;;;;;;4.00;2.05;;;5.40;53.70;;;;;;4973168;28;20015;-82
2024/03/12 11:20:33;;;;;;;3.03;1.80;;;5.40;53.80;;;;;;4973120;28;20030;-83
2024/03/12 11:23:00;;;;;;;4.97;1.75;;;5.40;54.00;;;;;;4973548;28;20403;-82
2024/03/12 11:25:32;;;;;;;2.42;1.65;;;5.40;54.10;;;;;;4973487;28;20027;-82
2024/03/12 11:28:20;;;;;;;2.67;1.98;;;5.30;54.20;;;;;;4974006;28;20015;-82
2024/03/12 11:31:02;;;;;;;2.35;1.70;;;5.20;54.50;;;;;;4975118;28;20026;-83
2024/03/12 11:33:51;;;;;;;2.67;1.42;;;5.10;54.60;;;;;;4974639;28;20042;-82
2024/03/12 11:36:29;;;;;;;3.05;2.22;;;5.10;54.70;;;;;;4971901;28;20051;-83
2024/03/12 11:39:11;;;;;;;3.58;1.52;;;5.00;54.80;;;;;;4973215;28;20054;-83
2024/03/12 11:41:59;;;;;;;3.30;2.00;;;5.10;54.80;;;;;;4974645;28;20069;-83
2024/03/12 11:44:48;;;;;;;4.68;2.17;;;5.10;54.70;;;;;;4976431;28;20493;-82
2024/03/12 11:47:42;;;;;;;2.40;1.73;;;5.10;54.80;;;;;;4976855;28;20022;-83
2024/03/12 11:50:32;;;;;;;3.88;2.67;;;5.10;55.00;;;;;;4977158;28;20385;-84
2024/03/12 11:53:25;;;;;;;6.78;2.33;;;5.10;55.50;;;;;;4972912;28;20129;-83
2024/03/12 11:55:59;;;;;;;3.17;2.13;;;5.20;55.10;;;;;;4979268;28;20381;-84
2024/03/12 11:58:31;;;;;;;3.60;1.92;;;5.20;55.10;;;;;;4980117;28;20019;-81
2024/03/12 12:00:58;;;;;;;3.72;1.98;;;5.20;54.70;;;;;;4977743;28;20396;-85
2024/03/12 12:03:24;;;;;;;2.25;1.33;;;5.10;54.80;;;;;;4977117;28;20093;-83
2024/03/12 12:05:50;;;;;;;1.80;1.40;;;5.10;54.70;;;;;;4977732;28;20054;-83
2024/03/12 12:08:18;;;;;;;3.78;1.67;;;5.10;54.70;;;;;;4980674;28;20031;-82
2024/03/12 12:11:09;;;;;;;4.18;2.05;;;5.10;55.10;;;;;;4980417;28;20114;-83
2024/03/12 12:13:35;;;;;;;3.63;1.70;;;5.10;55.10;;;;;;4976846;28;20473;-83
2024/03/12 12:16:04;;;;;;;6.68;2.25;;;5.20;54.90;;;;;;4976558;28;20073;-84
2024/03/12 12:18:31;;;;;;;8.55;2.42;;;5.20;54.90;;;;;;4977229;28;20078;-83
2024/03/12 12:21:04;;;;;;;4.40;2.57;;;5.30;55.20;;;;;;4976836;28;20022;-84
2024/03/12 12:23:30;;;;;;;4.28;2.28;;;5.30;55.60;;;;;;4976103;28;20713;-84
2024/03/12 12:25:57;;;;;;;4.22;2.00;;;5.30;55.60;;;;;;4975712;28;20022;-82
2024/03/12 12:28:24;;;;;;;4.88;2.55;;;5.30;55.80;;;;;;4976326;28;20388;-83
2024/03/12 12:31:02;;;;;;;2.60;2.13;;;5.30;55.90;;;;;;4976132;28;20030;-85
2024/03/12 12:33:30;;;;;;;2.78;2.05;;;5.30;55.90;;;;;;4976239;28;20045;-84
2024/03/12 12:36:08;;;;;;;5.47;2.38;;;5.30;55.90;;;;;;4974930;28;20065;-83
2024/03/12 12:38:37;;;;;;;;;;;5.30;55.70;;;;;;4976659;28;20511;-83
2024/03/12 12:41:06;;;;;;;4.07;2.35;;;5.30;55.50;;;;;;4966464;28;20291;-83
2024/03/12 12:43:33;;;;;;;5.68;2.72;;;5.20;55.80;;;;;;4968478;28;20085;-82
2024/03/12 12:46:05;;;;;;;2.83;1.95;;;5.20;56.00;;;;;;4975088;28;20031;-84
2024/03/12 12:48:35;;;;;;;3.40;2.00;;;5.30;56.00;;;;;;4974645;28;20038;-84
2024/03/12 12:51:03;;;;;;;3.42;2.78;;;5.40;55.90;;;;;;4974948;28;20412;-84
2024/03/12 12:53:30;;;;;;;3.90;2.72;;;5.40;55.50;;;;;;4975076;28;20035;-83
2024/03/12 12:55:58;;;;;;;3.75;1.83;;;5.40;55.60;;;;;;4974182;28;20023;-85
2024/03/12 12:58:26;;;;;;;9.57;2.63;;;5.40;55.80;;;;;;4975298;28;20515;-84
2024/03/12 13:01:06;;;;;;;4.03;1.77;;;5.50;55.70;;;;;;4975441;28;20037;-83
2024/03/12 13:03:43;;;;;;;3.97;2.22;;;5.50;55.30;;;;;;4974619;28;20037;-85
2024/03/12 13:06:21;;;;;;;3.50;2.05;;;5.50;55.10;;;;;;4975525;28;20026;-83
2024/03/12 13:08:51;;;;;;;6.57;2.53;;;5.60;55.10;;;;;;4975474;28;20496;-84
2024/03/12 13:11:20;;;;;;;5.38;2.03;;;5.50;55.00;;;;;;4957882;28;20107;-82